createdAt,value
2023-10-10T00:01:45.413Z,22.86
2023-10-10T00:04:12.912Z,22.90
2023-10-10T00:06:40.801Z,22.93
2023-10-10T00:09:14.100Z,22.93
2023-10-10T00:11:43.925Z,22.95
2023-10-10T00:14:19.066Z,22.92
2023-10-10T00:16:48.941Z,22.89
2023-10-10T00:19:21.737Z,22.92
2023-10-10T00:21:50.154Z,22.95
2023-10-10T00:24:21.693Z,22.96
2023-10-10T00:26:51.678Z,22.94
2023-10-10T00:29:24.046Z,22.95
2023-10-10T00:32:06.676Z,22.93
2023-10-10T00:34:38.435Z,22.91
2023-10-10T00:37:14.331Z,22.89
2023-10-10T00:39:41.718Z,22.85
2023-10-10T00:42:18.618Z,22.83
2023-10-10T00:44:45.525Z,22.84
2023-10-10T00:47:14.677Z,22.83
2023-10-10T00:49:46.226Z,22.80
2023-10-10T00:52:18.124Z,22.78
2023-10-10T00:54:45.156Z,22.72
2023-10-10T00:57:21.176Z,22.67
2023-10-10T00:59:50.054Z,22.67
2023-10-10T01:02:22.157Z,22.67
2023-10-10T01:04:49.900Z,22.72
2023-10-10T01:07:21.258Z,22.72
2023-10-10T01:09:58.975Z,22.69
2023-10-10T01:12:36.448Z,22.69
2023-10-10T01:15:09.936Z,22.68
2023-10-10T01:17:39.213Z,22.65
2023-10-10T01:20:16.678Z,22.64
2023-10-10T01:22:47.901Z,22.58
2023-10-10T01:25:32.502Z,22.55
2023-10-10T01:28:04.565Z,22.58
2023-10-10T01:30:49.734Z,22.57
2023-10-10T01:33:17.868Z,22.56
2023-10-10T01:35:45.748Z,22.57
2023-10-10T01:38:42.764Z,22.51
2023-10-10T01:41:32.488Z,22.53
2023-10-10T01:44:19.274Z,22.51
2023-10-10T01:46:46.998Z,22.51
2023-10-10T01:49:15.282Z,22.52
2023-10-10T01:51:43.893Z,22.50
2023-10-10T01:54:20.241Z,22.45
2023-10-10T01:56:47.318Z,22.47
2023-10-10T01:59:16.498Z,22.47
2023-10-10T02:01:43.694Z,22.48
2023-10-10T02:04:11.895Z,22.49
2023-10-10T02:06:41.792Z,22.49
2023-10-10T02:09:28.434Z,22.43
2023-10-10T02:12:08.730Z,22.34
2023-10-10T02:14:36.110Z,22.31
2023-10-10T02:17:10.962Z,22.27
2023-10-10T02:19:42.128Z,22.27
2023-10-10T02:22:24.391Z,22.26
2023-10-10T02:25:10.143Z,22.30
2023-10-10T02:27:54.764Z,22.31
2023-10-10T02:30:41.681Z,22.25
2023-10-10T02:33:25.490Z,22.21
2023-10-10T02:35:56.951Z,22.16
2023-10-10T02:38:26.025Z,22.09
2023-10-10T02:41:12.935Z,22.16
2023-10-10T02:43:57.133Z,22.16
2023-10-10T02:46:51.478Z,22.11
2023-10-10T02:49:24.573Z,22.06
2023-10-10T02:51:56.900Z,22.01
2023-10-10T02:54:32.337Z,21.91
2023-10-10T02:57:25.835Z,21.92
2023-10-10T03:00:01.207Z,21.90
2023-10-10T03:02:41.885Z,21.86
2023-10-10T03:05:16.500Z,21.78
2023-10-10T03:07:53.585Z,21.73
2023-10-10T03:10:24.416Z,21.76
2023-10-10T03:13:06.544Z,21.74
2023-10-10T03:15:34.543Z,21.75
2023-10-10T03:18:10.407Z,21.78
2023-10-10T03:20:38.148Z,21.80
2023-10-10T03:23:08.626Z,21.76
2023-10-10T03:25:55.004Z,21.68
2023-10-10T03:28:29.200Z,21.70
2023-10-10T03:31:17.568Z,21.81
2023-10-10T03:33:44.675Z,21.80
2023-10-10T03:36:19.645Z,21.87
2023-10-10T03:38:48.761Z,21.87
2023-10-10T03:41:22.376Z,21.82
2023-10-10T03:44:07.953Z,21.81
2023-10-10T03:46:55.138Z,21.69
2023-10-10T03:49:40.632Z,21.64
2023-10-10T03:52:26.435Z,21.70
2023-10-10T03:55:11.773Z,21.67
2023-10-10T03:57:57.075Z,21.70
2023-10-10T04:00:42.280Z,21.58
2023-10-10T04:03:27.579Z,21.47
2023-10-10T04:06:13.091Z,21.41
2023-10-10T04:08:58.582Z,21.43
2023-10-10T04:11:43.818Z,21.39
2023-10-10T04:14:29.335Z,21.46
2023-10-10T04:17:34.810Z,21.36
2023-10-10T04:20:20.371Z,21.38
2023-10-10T04:23:05.676Z,21.37
2023-10-10T04:25:51.240Z,21.39
2023-10-10T04:28:36.542Z,21.42
2023-10-10T04:31:26.132Z,21.46
2023-10-10T04:34:11.824Z,21.40
2023-10-10T04:36:57.318Z,21.51
2023-10-10T04:39:43.202Z,21.34
2023-10-10T04:42:28.337Z,21.29
2023-10-10T04:45:13.628Z,21.26
2023-10-10T04:47:59.098Z,21.24
2023-10-10T04:50:44.593Z,21.23
2023-10-10T04:53:29.944Z,21.21
2023-10-10T04:56:16.791Z,21.08
2023-10-10T04:59:02.536Z,21.13
2023-10-10T05:01:48.004Z,21.10
2023-10-10T05:04:33.399Z,21.07
2023-10-10T05:07:18.693Z,21.02
2023-10-10T05:10:03.993Z,21.03
2023-10-10T05:12:49.379Z,20.97
2023-10-10T05:15:34.429Z,21.03
2023-10-10T05:18:19.788Z,21.01
2023-10-10T05:21:05.105Z,20.99
2023-10-10T05:23:32.671Z,20.98
2023-10-10T05:26:00.845Z,21.02
2023-10-10T05:28:32.026Z,20.97
2023-10-10T05:31:00.045Z,20.95
2023-10-10T05:33:31.589Z,20.88
2023-10-10T05:36:00.180Z,20.83
2023-10-10T05:38:27.676Z,20.91
2023-10-10T05:40:55.622Z,20.91
2023-10-10T05:43:27.980Z,20.87
2023-10-10T05:45:55.711Z,20.85
2023-10-10T05:48:23.364Z,20.88
2023-10-10T05:50:50.455Z,20.91
2023-10-10T05:53:18.496Z,20.92
2023-10-10T05:55:51.592Z,20.96
2023-10-10T05:58:27.484Z,20.90
2023-10-10T06:00:56.056Z,20.94
2023-10-10T06:03:23.062Z,20.95
2023-10-10T06:05:51.286Z,21.02
2023-10-10T06:08:18.579Z,21.04
2023-10-10T06:10:45.482Z,21.04
2023-10-10T06:13:12.989Z,20.95
2023-10-10T06:15:40.731Z,20.94
2023-10-10T06:18:13.771Z,21.03
2023-10-10T06:20:51.266Z,20.95
2023-10-10T06:23:29.814Z,20.99
2023-10-10T06:26:02.473Z,20.88
2023-10-10T06:28:30.696Z,21.03
2023-10-10T06:31:00.968Z,21.09
2023-10-10T06:33:31.195Z,21.19
2023-10-10T06:36:24.758Z,21.25
2023-10-10T06:39:05.545Z,21.34
2023-10-10T06:41:41.354Z,21.34
2023-10-10T06:44:28.668Z,21.22
2023-10-10T06:46:56.877Z,21.26
2023-10-10T06:49:24.525Z,21.29
2023-10-10T06:51:51.475Z,21.39
2023-10-10T06:54:21.411Z,21.55
2023-10-10T06:57:00.723Z,21.65
2023-10-10T06:59:28.673Z,21.75
2023-10-10T07:02:01.021Z,21.77
2023-10-10T07:04:28.739Z,21.89
2023-10-10T07:07:02.086Z,22.06
2023-10-10T07:09:33.390Z,22.10
2023-10-10T07:12:19.090Z,22.19
2023-10-10T07:14:46.888Z,22.31
2023-10-10T07:17:15.279Z,22.45
2023-10-10T07:20:16.497Z,22.44
2023-10-10T07:22:45.113Z,22.53
2023-10-10T07:25:27.014Z,22.33
2023-10-10T07:27:54.668Z,22.54
2023-10-10T07:30:26.793Z,22.57
2023-10-10T07:32:53.898Z,22.65
2023-10-10T07:35:28.061Z,22.68
2023-10-10T07:38:00.016Z,22.77
2023-10-10T07:40:31.997Z,22.89
2023-10-10T07:43:04.413Z,22.99
2023-10-10T07:45:35.123Z,22.85
2023-10-10T07:48:03.313Z,22.88
2023-10-10T07:50:57.385Z,22.99
2023-10-10T07:53:35.138Z,23.15
2023-10-10T07:56:04.832Z,23.21
2023-10-10T07:58:54.022Z,23.27
2023-10-10T08:01:21.537Z,23.48
2023-10-10T08:03:49.063Z,23.50
2023-10-10T08:06:23.267Z,23.48
2023-10-10T08:09:12.864Z,23.54
2023-10-10T08:11:39.908Z,23.71
2023-10-10T08:14:08.509Z,23.86
2023-10-10T08:16:36.480Z,23.84
2023-10-10T08:19:06.579Z,23.91
2023-10-10T08:21:39.025Z,24.01
2023-10-10T08:24:13.203Z,24.07
2023-10-10T08:26:40.338Z,24.22
2023-10-10T08:29:11.513Z,24.30
2023-10-10T08:31:40.496Z,24.42
2023-10-10T08:34:10.334Z,24.37
2023-10-10T08:36:38.461Z,24.53
2023-10-10T08:39:17.796Z,24.59
2023-10-10T08:41:45.663Z,24.67
2023-10-10T08:44:16.444Z,24.82
2023-10-10T08:46:47.724Z,24.78
2023-10-10T08:49:15.976Z,25.01
2023-10-10T08:51:44.479Z,25.13
2023-10-10T08:54:15.461Z,25.10
2023-10-10T08:56:44.207Z,25.16
2023-10-10T08:59:12.385Z,25.24
2023-10-10T09:01:40.984Z,25.34
2023-10-10T09:04:13.903Z,25.35
2023-10-10T09:06:59.155Z,25.40
2023-10-10T09:09:41.181Z,25.48
2023-10-10T09:12:16.088Z,25.62
2023-10-10T09:14:52.811Z,25.63
2023-10-10T09:17:30.088Z,25.86
2023-10-10T09:20:05.644Z,25.96
2023-10-10T09:22:35.904Z,26.07
2023-10-10T09:25:19.382Z,26.14
2023-10-10T09:28:09.404Z,26.38
2023-10-10T09:30:41.859Z,26.40
2023-10-10T09:33:23.773Z,26.51
2023-10-10T09:35:59.997Z,26.49
2023-10-10T09:38:45.069Z,26.57
2023-10-10T09:41:36.987Z,26.70
2023-10-10T09:44:24.555Z,26.75
2023-10-10T09:47:04.878Z,26.72
2023-10-10T09:50:14.127Z,26.80
2023-10-10T09:53:00.184Z,26.90
2023-10-10T09:55:33.694Z,26.90
2023-10-10T09:58:01.302Z,27.04
2023-10-10T10:00:41.155Z,27.16
2023-10-10T10:03:30.770Z,27.30
2023-10-10T10:06:24.102Z,27.42
2023-10-10T10:09:19.591Z,27.53
2023-10-10T10:11:53.085Z,27.58
2023-10-10T10:14:27.008Z,27.68
2023-10-10T10:17:17.280Z,27.77
2023-10-10T10:19:49.405Z,27.83
2023-10-10T10:22:20.267Z,27.95
2023-10-10T10:24:47.084Z,28.01
2023-10-10T10:27:40.778Z,27.98
2023-10-10T10:30:20.313Z,27.92
2023-10-10T10:32:55.702Z,27.93
2023-10-10T10:35:25.035Z,27.83
2023-10-10T10:38:00.597Z,28.03
2023-10-10T10:40:40.684Z,27.96
2023-10-10T10:43:16.895Z,27.89
2023-10-10T10:45:53.052Z,27.99
2023-10-10T10:48:35.424Z,28.05
2023-10-10T10:51:27.963Z,27.95
2023-10-10T10:54:00.292Z,28.04
2023-10-10T10:56:32.574Z,28.13
2023-10-10T10:59:14.100Z,28.09
2023-10-10T11:01:59.053Z,28.11
2023-10-10T11:04:33.863Z,28.10
2023-10-10T11:07:08.338Z,28.22
2023-10-10T11:09:44.160Z,28.23
2023-10-10T11:12:11.084Z,28.30
2023-10-10T11:14:47.796Z,28.34
2023-10-10T11:17:19.373Z,28.33
2023-10-10T11:19:55.646Z,28.33
2023-10-10T11:22:39.581Z,28.27
2023-10-10T11:25:07.488Z,28.31
2023-10-10T11:27:45.024Z,28.39
2023-10-10T11:30:13.923Z,28.39
2023-10-10T11:33:01.430Z,28.42
2023-10-10T11:35:30.698Z,28.29
2023-10-10T11:38:00.897Z,28.38
2023-10-10T11:40:32.060Z,28.37
2023-10-10T11:43:14.343Z,28.27
2023-10-10T11:45:42.336Z,28.22
2023-10-10T11:48:16.940Z,28.25
2023-10-10T11:50:52.638Z,28.22
2023-10-10T11:53:28.762Z,28.14
2023-10-10T11:55:57.747Z,28.17
2023-10-10T11:58:37.453Z,28.13
2023-10-10T12:01:07.540Z,28.24
2023-10-10T12:03:42.164Z,28.15
2023-10-10T12:06:19.952Z,28.17
2023-10-10T12:08:52.172Z,28.10
2023-10-10T12:11:23.419Z,28.13
2023-10-10T12:13:55.445Z,28.14
2023-10-10T12:16:25.646Z,28.10
2023-10-10T12:18:54.594Z,28.11
2023-10-10T12:21:23.153Z,28.07
2023-10-10T12:24:02.333Z,28.16
2023-10-10T12:26:31.498Z,28.16
2023-10-10T12:28:58.834Z,28.16
2023-10-10T12:31:25.786Z,28.18
2023-10-10T12:33:55.268Z,28.22
2023-10-10T12:36:30.848Z,28.28
2023-10-10T12:39:00.681Z,28.25
2023-10-10T12:41:29.122Z,28.18
2023-10-10T12:43:56.309Z,28.16
2023-10-10T12:46:23.207Z,28.15
2023-10-10T12:48:53.255Z,28.13
2023-10-10T12:51:24.034Z,28.16
2023-10-10T12:53:58.179Z,28.15
2023-10-10T12:56:25.290Z,28.22
2023-10-10T12:59:05.205Z,28.25
2023-10-10T13:01:38.388Z,28.33
2023-10-10T13:04:09.238Z,28.44
2023-10-10T13:06:41.045Z,28.51
2023-10-10T13:09:09.864Z,28.58
2023-10-10T13:11:46.160Z,28.56
2023-10-10T13:14:18.586Z,28.62
2023-10-10T13:16:45.468Z,28.59
2023-10-10T13:19:13.433Z,28.56
2023-10-10T13:21:42.469Z,28.53
2023-10-10T13:24:15.247Z,28.43
2023-10-10T13:26:50.661Z,28.53
2023-10-10T13:29:18.740Z,28.49
2023-10-10T13:31:50.471Z,28.43
2023-10-10T13:34:23.691Z,28.43
2023-10-10T13:36:51.135Z,28.46
2023-10-10T13:39:34.468Z,28.40
2023-10-10T13:42:01.570Z,28.48
2023-10-10T13:44:28.483Z,28.48
2023-10-10T13:46:56.243Z,28.49
2023-10-10T13:49:23.014Z,28.44
2023-10-10T13:51:53.383Z,28.41
2023-10-10T13:54:20.761Z,28.43
2023-10-10T13:56:47.811Z,28.43
2023-10-10T13:59:18.441Z,28.46
2023-10-10T14:01:45.506Z,28.46
2023-10-10T14:04:24.551Z,28.42
2023-10-10T14:06:51.689Z,28.41
2023-10-10T14:09:36.269Z,28.41
2023-10-10T14:12:09.981Z,28.38
2023-10-10T14:14:37.688Z,28.33
2023-10-10T14:17:07.272Z,28.40
2023-10-10T14:19:35.960Z,28.24
2023-10-10T14:22:11.358Z,28.27
2023-10-10T14:24:38.556Z,28.24
2023-10-10T14:27:09.387Z,28.27
2023-10-10T14:29:43.027Z,28.32
2023-10-10T14:32:20.080Z,28.24
2023-10-10T14:34:59.231Z,28.24
2023-10-10T14:37:41.794Z,28.19
2023-10-10T14:40:13.231Z,28.19
2023-10-10T14:42:42.951Z,28.16
2023-10-10T14:45:10.440Z,28.17
2023-10-10T14:47:40.669Z,28.22
2023-10-10T14:50:11.905Z,28.19
2023-10-10T14:52:41.541Z,28.26
2023-10-10T14:55:24.579Z,28.24
2023-10-10T14:57:59.104Z,28.20
2023-10-10T15:00:29.592Z,28.18
2023-10-10T15:02:57.639Z,28.20
2023-10-10T15:05:25.925Z,28.23
2023-10-10T15:07:53.936Z,28.25
2023-10-10T15:10:24.765Z,28.22
2023-10-10T15:12:51.617Z,28.17
2023-10-10T15:15:18.455Z,28.21
2023-10-10T15:17:45.439Z,28.22
2023-10-10T15:20:15.560Z,28.18
2023-10-10T15:22:43.268Z,28.24
2023-10-10T15:25:12.010Z,28.15
2023-10-10T15:27:42.076Z,28.10
2023-10-10T15:30:10.040Z,28.11
2023-10-10T15:32:49.373Z,28.14
2023-10-10T15:35:18.548Z,28.20
2023-10-10T15:37:45.615Z,28.19
2023-10-10T15:40:24.145Z,28.19
2023-10-10T15:42:52.941Z,28.15
2023-10-10T15:45:23.098Z,28.14
2023-10-10T15:47:54.112Z,28.12
2023-10-10T15:50:22.951Z,28.11
2023-10-10T15:52:50.333Z,28.15
2023-10-10T15:55:24.991Z,28.12
2023-10-10T15:57:57.086Z,28.06
2023-10-10T16:00:34.330Z,28.09
2023-10-10T16:03:08.062Z,28.11
2023-10-10T16:05:46.295Z,28.03
2023-10-10T16:08:13.707Z,28.01
2023-10-10T16:10:42.835Z,27.97
2023-10-10T16:13:10.408Z,28.02
2023-10-10T16:15:38.229Z,27.99
2023-10-10T16:18:06.149Z,27.97
2023-10-10T16:20:37.089Z,27.95
2023-10-10T16:23:09.482Z,27.88
2023-10-10T16:25:38.527Z,27.83
2023-10-10T16:28:08.712Z,27.84
2023-10-10T16:30:40.675Z,27.81
2023-10-10T16:33:12.039Z,27.78
2023-10-10T16:35:41.528Z,27.64
2023-10-10T16:38:08.362Z,27.60
2023-10-10T16:40:35.643Z,27.57
2023-10-10T16:43:03.457Z,27.45
2023-10-10T16:45:33.743Z,27.29
2023-10-10T16:48:02.731Z,27.25
2023-10-10T16:50:29.772Z,27.13
2023-10-10T16:53:09.840Z,27.02
2023-10-10T16:55:38.299Z,26.92
2023-10-10T16:58:05.067Z,26.81
2023-10-10T17:00:31.917Z,26.73
2023-10-10T17:02:58.904Z,26.65
2023-10-10T17:05:29.217Z,26.62
2023-10-10T17:07:57.570Z,26.54
2023-10-10T17:10:24.407Z,26.46
2023-10-10T17:12:53.083Z,26.38
2023-10-10T17:15:20.136Z,26.31
2023-10-10T17:17:47.442Z,26.31
2023-10-10T17:20:17.630Z,26.28
2023-10-10T17:22:51.329Z,26.15
2023-10-10T17:25:19.391Z,26.11
2023-10-10T17:27:46.583Z,26.04
2023-10-10T17:30:15.482Z,26.07
2023-10-10T17:32:43.850Z,26.04
2023-10-10T17:35:11.344Z,26.02
2023-10-10T17:37:41.668Z,26.03
2023-10-10T17:40:14.184Z,25.97
2023-10-10T17:42:50.186Z,25.97
2023-10-10T17:45:17.663Z,25.91
2023-10-10T17:47:44.919Z,25.87
2023-10-10T17:50:11.866Z,25.86
2023-10-10T17:52:39.281Z,25.81
2023-10-10T17:55:09.827Z,25.76
2023-10-10T17:57:36.643Z,25.72
2023-10-10T18:00:17.109Z,25.74
2023-10-10T18:02:46.437Z,25.71
2023-10-10T18:05:17.074Z,25.73
2023-10-10T18:07:45.161Z,25.66
2023-10-10T18:10:14.457Z,25.66
2023-10-10T18:12:42.203Z,25.65
2023-10-10T18:15:13.260Z,25.64
2023-10-10T18:17:40.579Z,25.65
2023-10-10T18:20:17.421Z,25.63
2023-10-10T18:22:49.788Z,25.61
2023-10-10T18:25:19.392Z,25.56
2023-10-10T18:27:48.436Z,25.46
2023-10-10T18:30:17.420Z,25.50
2023-10-10T18:32:46.449Z,25.53
2023-10-10T18:35:15.121Z,25.49
2023-10-10T18:37:44.211Z,25.44
2023-10-10T18:40:18.537Z,25.45
2023-10-10T18:42:48.037Z,25.36
2023-10-10T18:45:19.751Z,25.35
2023-10-10T18:47:50.202Z,25.31
2023-10-10T18:50:20.385Z,25.27
2023-10-10T18:52:51.251Z,25.29
2023-10-10T18:55:19.463Z,25.33
2023-10-10T18:57:50.352Z,25.39
2023-10-10T19:00:17.938Z,25.41
2023-10-10T19:02:45.865Z,25.42
2023-10-10T19:05:18.587Z,25.39
2023-10-10T19:07:46.732Z,25.38
2023-10-10T19:10:17.397Z,25.39
2023-10-10T19:12:46.131Z,25.38
2023-10-10T19:15:16.176Z,25.41
2023-10-10T19:17:53.304Z,25.37
2023-10-10T19:20:24.648Z,25.35
2023-10-10T19:22:53.485Z,25.37
2023-10-10T19:25:20.724Z,25.21
2023-10-10T19:27:58.784Z,25.10
2023-10-10T19:30:27.225Z,25.09
2023-10-10T19:32:54.729Z,25.04
2023-10-10T19:35:23.013Z,24.99
2023-10-10T19:37:50.856Z,24.92
2023-10-10T19:40:22.180Z,24.88
2023-10-10T19:42:52.953Z,24.87
2023-10-10T19:45:25.979Z,24.83
2023-10-10T19:48:03.818Z,24.78
2023-10-10T19:50:32.098Z,24.72
2023-10-10T19:52:59.184Z,24.68
2023-10-10T19:55:26.573Z,24.67
2023-10-10T19:57:53.414Z,24.67
2023-10-10T20:00:23.065Z,24.64
2023-10-10T20:02:51.382Z,24.57
2023-10-10T20:05:21.724Z,24.52
2023-10-10T20:07:54.929Z,24.54
2023-10-10T20:10:23.537Z,24.46
2023-10-10T20:12:55.645Z,24.51
2023-10-10T20:15:25.458Z,24.54
2023-10-10T20:17:53.203Z,24.58
2023-10-10T20:20:27.215Z,24.60
2023-10-10T20:22:57.941Z,24.61
2023-10-10T20:25:25.236Z,24.57
2023-10-10T20:27:52.082Z,24.55
2023-10-10T20:30:23.435Z,24.54
2023-10-10T20:32:52.138Z,24.54
2023-10-10T20:35:25.686Z,24.55
2023-10-10T20:37:57.983Z,24.54
2023-10-10T20:40:30.686Z,24.46
2023-10-10T20:43:02.032Z,24.46
2023-10-10T20:45:30.341Z,24.38
2023-10-10T20:47:58.770Z,24.34
2023-10-10T20:50:32.659Z,24.30
2023-10-10T20:53:01.198Z,24.29
2023-10-10T20:55:29.841Z,24.27
2023-10-10T20:57:58.710Z,24.27
2023-10-10T21:00:29.891Z,24.26
2023-10-10T21:02:59.826Z,24.25
2023-10-10T21:05:27.668Z,24.20
2023-10-10T21:07:58.275Z,24.20
2023-10-10T21:10:25.623Z,24.13
2023-10-10T21:12:52.786Z,24.16
2023-10-10T21:15:21.587Z,24.11
2023-10-10T21:17:50.128Z,24.10
2023-10-10T21:20:26.186Z,24.06
2023-10-10T21:22:54.180Z,24.04
2023-10-10T21:25:24.724Z,24.01
2023-10-10T21:27:56.194Z,23.99
2023-10-10T21:30:24.845Z,23.98
2023-10-10T21:32:52.603Z,23.93
2023-10-10T21:35:23.274Z,23.95
2023-10-10T21:37:50.291Z,23.83
2023-10-10T21:40:21.482Z,23.79
2023-10-10T21:42:50.268Z,23.73
2023-10-10T21:45:19.874Z,23.72
2023-10-10T21:47:48.282Z,23.65
2023-10-10T21:50:18.021Z,23.61
2023-10-10T21:52:47.426Z,23.60
2023-10-10T21:55:19.661Z,23.55
2023-10-10T21:57:51.050Z,23.50
2023-10-10T22:00:42.392Z,23.42
2023-10-10T22:03:09.625Z,23.43
2023-10-10T22:05:38.658Z,23.41
2023-10-10T22:08:07.829Z,23.39
2023-10-10T22:10:36.795Z,23.40
2023-10-10T22:13:07.340Z,23.39
2023-10-10T22:15:36.362Z,23.37
2023-10-10T22:18:06.129Z,23.37
2023-10-10T22:20:36.747Z,23.35
2023-10-10T22:23:05.914Z,23.31
2023-10-10T22:25:35.874Z,23.24
2023-10-10T22:28:05.044Z,23.19
2023-10-10T22:30:38.756Z,23.16
2023-10-10T22:33:11.952Z,23.16
2023-10-10T22:35:39.940Z,23.15
2023-10-10T22:38:07.382Z,23.16
2023-10-10T22:40:35.286Z,23.13
2023-10-10T22:43:05.264Z,23.06
2023-10-10T22:45:34.782Z,23.02
2023-10-10T22:48:03.035Z,22.93
2023-10-10T22:50:34.074Z,22.83
2023-10-10T22:53:03.075Z,22.65
2023-10-10T22:55:35.140Z,22.61
2023-10-10T22:58:08.149Z,22.61
2023-10-10T23:00:39.540Z,22.60
2023-10-10T23:03:12.328Z,22.41
2023-10-10T23:05:41.000Z,22.38
2023-10-10T23:08:08.660Z,22.50
2023-10-10T23:10:40.352Z,22.41
2023-10-10T23:13:14.296Z,22.34
2023-10-10T23:15:41.545Z,22.31
2023-10-10T23:18:12.106Z,22.26
2023-10-10T23:20:42.720Z,22.31
2023-10-10T23:23:12.208Z,22.34
2023-10-10T23:25:39.757Z,22.44
2023-10-10T23:28:09.792Z,22.51
2023-10-10T23:30:40.542Z,22.47
2023-10-10T23:33:13.244Z,22.46
2023-10-10T23:35:41.319Z,22.49
2023-10-10T23:38:08.296Z,22.55
2023-10-10T23:40:47.171Z,22.58
2023-10-10T23:43:22.966Z,22.60
2023-10-10T23:45:58.320Z,22.57
2023-10-10T23:48:32.252Z,22.63
2023-10-10T23:50:59.661Z,22.63
2023-10-10T23:53:26.704Z,22.68
2023-10-10T23:56:00.512Z,22.69
2023-10-10T23:58:28.916Z,22.73
